Argo Village, New York
Current Conditions -  °F | °C
As of 2:51 PM on Saturday 25 Oct 2014 (Local Time) from KJFK Reporting Station
Scattered Clouds Scattered Clouds  
Wind Chill: 66°   Ceiling: Unl
Heat Index: 66°   Visibility: 10mi
Dew Point: 42°   Wind: 9mph
Humidity: 42%   Direction: 220°SW
Pressure: 29.72"   Gusts: 18mph
Location:  40.7013°N, 73.7074°W
Report Text: KJFK 251851Z 22008G16KT 10SM SCT260 19/06 A2972 RMK AO2 SLP064 T01890056
Loading
Personal Weather Stations






























Interactive Weather Map
Tropical Storm Tracking
New forecast layout! Learn more

10-Day Weather Forecast

Advertisements
Track Severe Weather on mobile